sensor_id;sensor_type;location;lat;lon;timestamp;temperature;humidity
13186;DHT22;6658;53.080;7.428;2024-01-15T00:01:58;1.80;99.90
13186;DHT22;6658;53.080;7.428;2024-01-15T00:04:24;1.80;99.90
13186;DHT22;6658;53.080;7.428;2024-01-15T00:06:50;1.90;99.90
13186;DHT22;6658;53.080;7.428;2024-01-15T00:09:16;2.00;99.90
13186;DHT22;6658;53.080;7.428;2024-01-15T00:11:42;2.10;99.90
13186;DHT22;6658;53.080;7.428;2024-01-15T00:14:08;2.20;99.90
13186;DHT22;6658;53.080;7.428;2024-01-15T00:16:34;2.20;99.90
13186;DHT22;6658;53.080;7.428;2024-01-15T00:19:00;2.30;99.90
13186;DHT22;6658;53.080;7.428;2024-01-15T00:21:25;2.40;99.90
13186;DHT22;6658;53.080;7.428;2024-01-15T00:23:51;2.40;99.90
13186;DHT22;6658;53.080;7.428;2024-01-15T00:26:16;2.30;99.90
13186;DHT22;6658;53.080;7.428;2024-01-15T00:28:42;2.20;99.90
13186;DHT22;6658;53.080;7.428;2024-01-15T00:31:08;2.10;99.90
13186;DHT22;6658;53.080;7.428;2024-01-15T00:33:34;2.10;99.90
13186;DHT22;6658;53.080;7.428;2024-01-15T00:35:59;2.10;99.90
13186;DHT22;6658;53.080;7.428;2024-01-15T00:38:25;2.20;99.90
13186;DHT22;6658;53.080;7.428;2024-01-15T00:40:51;2.20;99.90
13186;DHT22;6658;53.080;7.428;2024-01-15T00:43:16;2.20;99.90
13186;DHT22;6658;53.080;7.428;2024-01-15T00:45:44;2.10;99.90
13186;DHT22;6658;53.080;7.428;2024-01-15T00:48:10;2.10;99.90
13186;DHT22;6658;53.080;7.428;2024-01-15T00:50:36;2.00;99.90
13186;DHT22;6658;53.080;7.428;2024-01-15T00:53:02;1.90;99.90
13186;DHT22;6658;53.080;7.428;2024-01-15T00:55:28;1.90;99.90
13186;DHT22;6658;53.080;7.428;2024-01-15T00:57:55;1.90;99.90
13186;DHT22;6658;53.080;7.428;2024-01-15T01:00:20;1.90;99.90
13186;DHT22;6658;53.080;7.428;2024-01-15T01:02:46;1.90;99.90
13186;DHT22;6658;53.080;7.428;2024-01-15T01:05:12;1.90;99.90
13186;DHT22;6658;53.080;7.428;2024-01-15T01:07:38;1.90;99.90
13186;DHT22;6658;53.080;7.428;2024-01-15T01:10:04;2.00;99.90
13186;DHT22;6658;53.080;7.428;2024-01-15T01:12:30;2.00;99.90
13186;DHT22;6658;53.080;7.428;2024-01-15T01:14:56;2.10;99.90
13186;DHT22;6658;53.080;7.428;2024-01-15T01:17:22;2.10;99.90
13186;DHT22;6658;53.080;7.428;2024-01-15T01:19:49;2.10;99.90
13186;DHT22;6658;53.080;7.428;2024-01-15T01:22:15;2.10;99.90
13186;DHT22;6658;53.080;7.428;2024-01-15T01:24:41;2.00;99.90
13186;DHT22;6658;53.080;7.428;2024-01-15T01:27:06;2.00;99.90
13186;DHT22;6658;53.080;7.428;2024-01-15T01:29:32;2.00;99.90
13186;DHT22;6658;53.080;7.428;2024-01-15T01:31:58;2.00;99.90
13186;DHT22;6658;53.080;7.428;2024-01-15T01:34:24;2.00;99.90
13186;DHT22;6658;53.080;7.428;2024-01-15T01:36:49;2.00;99.90
13186;DHT22;6658;53.080;7.428;2024-01-15T01:39:15;2.10;99.90
13186;DHT22;6658;53.080;7.428;2024-01-15T01:41:41;2.20;99.90
13186;DHT22;6658;53.080;7.428;2024-01-15T01:44:07;2.20;99.90
13186;DHT22;6658;53.080;7.428;2024-01-15T01:46:34;2.20;99.90
13186;DHT22;6658;53.080;7.428;2024-01-15T01:49:04;2.20;99.90
13186;DHT22;6658;53.080;7.428;2024-01-15T01:51:31;2.10;99.90
13186;DHT22;6658;53.080;7.428;2024-01-15T01:53:58;2.20;99.90
13186;DHT22;6658;53.080;7.428;2024-01-15T01:56:24;2.20;99.90
13186;DHT22;6658;53.080;7.428;2024-01-15T01:58:50;2.10;99.90
13186;DHT22;6658;53.080;7.428;2024-01-15T02:01:15;2.10;99.90
13186;DHT22;6658;53.080;7.428;2024-01-15T02:03:41;2.00;99.90
13186;DHT22;6658;53.080;7.428;2024-01-15T02:06:08;2.10;99.90
13186;DHT22;6658;53.080;7.428;2024-01-15T02:08:34;2.10;99.90
13186;DHT22;6658;53.080;7.428;2024-01-15T02:11:00;2.10;99.90
13186;DHT22;6658;53.080;7.428;2024-01-15T02:13:26;2.20;99.90
13186;DHT22;6658;53.080;7.428;2024-01-15T02:15:51;2.30;99.90
13186;DHT22;6658;53.080;7.428;2024-01-15T02:18:17;2.40;99.90
13186;DHT22;6658;53.080;7.428;2024-01-15T02:20:43;2.40;99.90
13186;DHT22;6658;53.080;7.428;2024-01-15T02:23:13;2.40;99.90
13186;DHT22;6658;53.080;7.428;2024-01-15T02:25:44;2.40;99.90
13186;DHT22;6658;53.080;7.428;2024-01-15T02:28:12;2.40;99.90
13186;DHT22;6658;53.080;7.428;2024-01-15T02:30:38;2.40;99.90
13186;DHT22;6658;53.080;7.428;2024-01-15T02:33:05;2.40;99.90
13186;DHT22;6658;53.080;7.428;2024-01-15T02:35:31;2.40;99.90
13186;DHT22;6658;53.080;7.428;2024-01-15T02:37:57;2.40;99.90
13186;DHT22;6658;53.080;7.428;2024-01-15T02:40:22;2.40;99.90
13186;DHT22;6658;53.080;7.428;2024-01-15T02:42:48;2.40;99.90
13186;DHT22;6658;53.080;7.428;2024-01-15T02:45:14;2.30;99.90
13186;DHT22;6658;53.080;7.428;2024-01-15T02:47:39;2.30;99.90
13186;DHT22;6658;53.080;7.428;2024-01-15T02:50:05;2.30;99.90
13186;DHT22;6658;53.080;7.428;2024-01-15T02:52:31;2.30;99.90
13186;DHT22;6658;53.080;7.428;2024-01-15T02:54:57;2.40;99.90
13186;DHT22;6658;53.080;7.428;2024-01-15T02:57:23;2.40;99.90
13186;DHT22;6658;53.080;7.428;2024-01-15T02:59:49;2.40;99.90
13186;DHT22;6658;53.080;7.428;2024-01-15T03:02:15;2.50;99.90
13186;DHT22;6658;53.080;7.428;2024-01-15T03:04:44;2.50;99.90
13186;DHT22;6658;53.080;7.428;2024-01-15T03:07:09;2.50;99.90
13186;DHT22;6658;53.080;7.428;2024-01-15T03:09:35;2.50;99.90
13186;DHT22;6658;53.080;7.428;2024-01-15T03:12:01;2.60;99.90
13186;DHT22;6658;53.080;7.428;2024-01-15T03:14:27;2.50;99.90
13186;DHT22;6658;53.080;7.428;2024-01-15T03:16:53;2.50;99.90
13186;DHT22;6658;53.080;7.428;2024-01-15T03:19:19;2.50;99.90
13186;DHT22;6658;53.080;7.428;2024-01-15T03:21:44;2.50;99.90
13186;DHT22;6658;53.080;7.428;2024-01-15T03:24:10;2.40;99.90
13186;DHT22;6658;53.080;7.428;2024-01-15T03:26:36;2.40;99.90
13186;DHT22;6658;53.080;7.428;2024-01-15T03:29:02;2.40;99.90
13186;DHT22;6658;53.080;7.428;2024-01-15T03:31:27;2.40;99.90
13186;DHT22;6658;53.080;7.428;2024-01-15T03:33:53;2.40;99.90
13186;DHT22;6658;53.080;7.428;2024-01-15T03:36:19;2.50;99.90
13186;DHT22;6658;53.080;7.428;2024-01-15T03:38:44;2.40;99.90
13186;DHT22;6658;53.080;7.428;2024-01-15T03:41:10;2.40;99.90
13186;DHT22;6658;53.080;7.428;2024-01-15T03:43:36;2.40;99.90
13186;DHT22;6658;53.080;7.428;2024-01-15T03:46:01;2.40;99.90
13186;DHT22;6658;53.080;7.428;2024-01-15T03:48:27;2.40;99.90
13186;DHT22;6658;53.080;7.428;2024-01-15T03:50:53;2.40;99.90
13186;DHT22;6658;53.080;7.428;2024-01-15T03:53:19;2.40;99.90
13186;DHT22;6658;53.080;7.428;2024-01-15T03:55:45;2.40;99.90
13186;DHT22;6658;53.080;7.428;2024-01-15T03:58:10;2.40;99.90
13186;DHT22;6658;53.080;7.428;2024-01-15T04:00:37;2.40;99.90
13186;DHT22;6658;53.080;7.428;2024-01-15T04:03:03;2.50;99.90
13186;DHT22;6658;53.080;7.428;2024-01-15T04:05:28;2.50;99.90
13186;DHT22;6658;53.080;7.428;2024-01-15T04:07:54;2.50;99.90
13186;DHT22;6658;53.080;7.428;2024-01-15T04:10:20;2.50;99.90
13186;DHT22;6658;53.080;7.428;2024-01-15T04:12:45;2.60;99.90
13186;DHT22;6658;53.080;7.428;2024-01-15T04:15:12;2.60;99.90
13186;DHT22;6658;53.080;7.428;2024-01-15T04:17:38;2.50;99.90
13186;DHT22;6658;53.080;7.428;2024-01-15T04:20:04;2.50;99.90
13186;DHT22;6658;53.080;7.428;2024-01-15T04:22:30;2.40;99.90
13186;DHT22;6658;53.080;7.428;2024-01-15T04:24:56;2.40;99.90
13186;DHT22;6658;53.080;7.428;2024-01-15T04:27:21;2.40;99.90
13186;DHT22;6658;53.080;7.428;2024-01-15T04:29:47;2.50;99.90
13186;DHT22;6658;53.080;7.428;2024-01-15T04:32:13;2.50;99.90
13186;DHT22;6658;53.080;7.428;2024-01-15T04:34:38;2.50;99.90
13186;DHT22;6658;53.080;7.428;2024-01-15T04:37:04;2.50;99.90
13186;DHT22;6658;53.080;7.428;2024-01-15T04:39:30;2.50;99.90
13186;DHT22;6658;53.080;7.428;2024-01-15T04:41:55;2.60;99.90
13186;DHT22;6658;53.080;7.428;2024-01-15T04:44:21;2.60;99.90
13186;DHT22;6658;53.080;7.428;2024-01-15T04:46:47;2.60;99.90
13186;DHT22;6658;53.080;7.428;2024-01-15T04:49:13;2.70;99.90
13186;DHT22;6658;53.080;7.428;2024-01-15T04:51:38;2.60;99.90
13186;DHT22;6658;53.080;7.428;2024-01-15T04:54:04;2.60;99.90
13186;DHT22;6658;53.080;7.428;2024-01-15T04:56:30;2.60;99.90
13186;DHT22;6658;53.080;7.428;2024-01-15T04:58:55;2.50;99.90
13186;DHT22;6658;53.080;7.428;2024-01-15T05:01:21;2.50;99.90
13186;DHT22;6658;53.080;7.428;2024-01-15T05:03:47;2.50;99.90
13186;DHT22;6658;53.080;7.428;2024-01-15T05:06:12;2.50;99.90
13186;DHT22;6658;53.080;7.428;2024-01-15T05:08:38;2.50;99.90
13186;DHT22;6658;53.080;7.428;2024-01-15T05:11:04;2.50;99.90
13186;DHT22;6658;53.080;7.428;2024-01-15T05:13:29;2.50;99.90
13186;DHT22;6658;53.080;7.428;2024-01-15T05:15:55;2.50;99.90
13186;DHT22;6658;53.080;7.428;2024-01-15T05:18:21;2.40;99.90
13186;DHT22;6658;53.080;7.428;2024-01-15T05:20:46;2.40;99.90
13186;DHT22;6658;53.080;7.428;2024-01-15T05:23:12;2.40;99.90
13186;DHT22;6658;53.080;7.428;2024-01-15T05:25:38;2.50;99.90
13186;DHT22;6658;53.080;7.428;2024-01-15T05:28:05;2.50;99.90
13186;DHT22;6658;53.080;7.428;2024-01-15T05:30:30;2.50;99.90
13186;DHT22;6658;53.080;7.428;2024-01-15T05:32:56;2.50;99.90
13186;DHT22;6658;53.080;7.428;2024-01-15T05:35:23;2.40;99.90
13186;DHT22;6658;53.080;7.428;2024-01-15T05:37:48;2.30;99.90
13186;DHT22;6658;53.080;7.428;2024-01-15T05:40:14;2.30;99.90
13186;DHT22;6658;53.080;7.428;2024-01-15T05:42:41;2.20;99.90
13186;DHT22;6658;53.080;7.428;2024-01-15T05:45:07;2.20;99.90
13186;DHT22;6658;53.080;7.428;2024-01-15T05:47:33;2.20;99.90
13186;DHT22;6658;53.080;7.428;2024-01-15T05:50:00;2.10;99.90
13186;DHT22;6658;53.080;7.428;2024-01-15T05:52:25;2.10;99.90
13186;DHT22;6658;53.080;7.428;2024-01-15T05:54:51;2.10;99.90
13186;DHT22;6658;53.080;7.428;2024-01-15T05:57:17;2.00;99.90
13186;DHT22;6658;53.080;7.428;2024-01-15T05:59:44;2.10;99.90
13186;DHT22;6658;53.080;7.428;2024-01-15T06:02:10;2.20;99.90
13186;DHT22;6658;53.080;7.428;2024-01-15T06:04:37;2.20;99.90
13186;DHT22;6658;53.080;7.428;2024-01-15T06:07:02;2.30;99.90
13186;DHT22;6658;53.080;7.428;2024-01-15T06:09:28;2.30;99.90
13186;DHT22;6658;53.080;7.428;2024-01-15T06:11:55;2.30;99.90
13186;DHT22;6658;53.080;7.428;2024-01-15T06:14:20;2.20;99.90
13186;DHT22;6658;53.080;7.428;2024-01-15T06:16:46;2.10;99.90
13186;DHT22;6658;53.080;7.428;2024-01-15T06:19:12;2.00;99.90
13186;DHT22;6658;53.080;7.428;2024-01-15T06:21:38;2.00;99.90
13186;DHT22;6658;53.080;7.428;2024-01-15T06:24:04;1.90;99.90
13186;DHT22;6658;53.080;7.428;2024-01-15T06:26:29;1.80;99.90
13186;DHT22;6658;53.080;7.428;2024-01-15T06:28:55;1.80;99.90
13186;DHT22;6658;53.080;7.428;2024-01-15T06:31:21;1.80;99.90
13186;DHT22;6658;53.080;7.428;2024-01-15T06:33:47;1.70;99.90
13186;DHT22;6658;53.080;7.428;2024-01-15T06:36:13;1.60;99.90
13186;DHT22;6658;53.080;7.428;2024-01-15T06:38:39;1.60;99.90
13186;DHT22;6658;53.080;7.428;2024-01-15T06:41:05;1.50;99.90
13186;DHT22;6658;53.080;7.428;2024-01-15T06:43:32;1.50;99.90
13186;DHT22;6658;53.080;7.428;2024-01-15T06:45:57;1.50;99.90
13186;DHT22;6658;53.080;7.428;2024-01-15T06:48:24;1.50;99.90
13186;DHT22;6658;53.080;7.428;2024-01-15T06:50:49;1.60;99.90
13186;DHT22;6658;53.080;7.428;2024-01-15T06:53:15;1.70;99.90
13186;DHT22;6658;53.080;7.428;2024-01-15T06:55:41;1.70;99.90
13186;DHT22;6658;53.080;7.428;2024-01-15T06:58:06;1.70;99.90
13186;DHT22;6658;53.080;7.428;2024-01-15T07:00:32;1.80;99.90
13186;DHT22;6658;53.080;7.428;2024-01-15T07:02:58;1.80;99.90
13186;DHT22;6658;53.080;7.428;2024-01-15T07:05:24;1.80;99.90
13186;DHT22;6658;53.080;7.428;2024-01-15T07:07:50;1.80;99.90
13186;DHT22;6658;53.080;7.428;2024-01-15T07:10:15;1.80;99.90
13186;DHT22;6658;53.080;7.428;2024-01-15T07:12:44;1.80;99.90
13186;DHT22;6658;53.080;7.428;2024-01-15T07:15:10;1.80;99.90
13186;DHT22;6658;53.080;7.428;2024-01-15T07:17:36;1.80;99.90
13186;DHT22;6658;53.080;7.428;2024-01-15T07:20:06;1.90;99.90
13186;DHT22;6658;53.080;7.428;2024-01-15T07:22:33;1.90;99.90
13186;DHT22;6658;53.080;7.428;2024-01-15T07:24:59;1.90;99.90
13186;DHT22;6658;53.080;7.428;2024-01-15T07:27:25;2.00;99.90
13186;DHT22;6658;53.080;7.428;2024-01-15T07:29:50;2.00;99.90
13186;DHT22;6658;53.080;7.428;2024-01-15T07:32:16;2.00;99.90
13186;DHT22;6658;53.080;7.428;2024-01-15T07:34:42;2.00;99.90
13186;DHT22;6658;53.080;7.428;2024-01-15T07:37:08;2.00;99.90
13186;DHT22;6658;53.080;7.428;2024-01-15T07:39:33;2.00;99.90
13186;DHT22;6658;53.080;7.428;2024-01-15T07:42:00;1.90;99.90
13186;DHT22;6658;53.080;7.428;2024-01-15T07:44:26;1.90;99.90
13186;DHT22;6658;53.080;7.428;2024-01-15T07:46:51;1.90;99.90
13186;DHT22;6658;53.080;7.428;2024-01-15T07:49:17;1.90;99.90
13186;DHT22;6658;53.080;7.428;2024-01-15T07:51:43;1.90;99.90
13186;DHT22;6658;53.080;7.428;2024-01-15T07:54:11;1.80;99.90
13186;DHT22;6658;53.080;7.428;2024-01-15T07:56:56;1.80;99.90
13186;DHT22;6658;53.080;7.428;2024-01-15T07:59:23;1.90;99.90
13186;DHT22;6658;53.080;7.428;2024-01-15T08:01:49;1.90;99.90
13186;DHT22;6658;53.080;7.428;2024-01-15T08:04:14;1.90;99.90
13186;DHT22;6658;53.080;7.428;2024-01-15T08:06:40;1.90;99.90
13186;DHT22;6658;53.080;7.428;2024-01-15T08:09:06;1.90;99.90
13186;DHT22;6658;53.080;7.428;2024-01-15T08:11:31;2.00;99.90
13186;DHT22;6658;53.080;7.428;2024-01-15T08:13:57;2.00;99.90
13186;DHT22;6658;53.080;7.428;2024-01-15T08:16:23;2.00;99.90
13186;DHT22;6658;53.080;7.428;2024-01-15T08:18:50;2.00;99.90
13186;DHT22;6658;53.080;7.428;2024-01-15T08:21:16;2.00;99.90
13186;DHT22;6658;53.080;7.428;2024-01-15T08:23:42;2.00;99.90
13186;DHT22;6658;53.080;7.428;2024-01-15T08:26:08;2.00;99.90
13186;DHT22;6658;53.080;7.428;2024-01-15T08:28:34;2.00;99.90
13186;DHT22;6658;53.080;7.428;2024-01-15T08:31:00;2.00;99.90
13186;DHT22;6658;53.080;7.428;2024-01-15T08:33:25;2.00;99.90
13186;DHT22;6658;53.080;7.428;2024-01-15T08:35:51;2.00;99.90
13186;DHT22;6658;53.080;7.428;2024-01-15T08:38:19;2.00;99.90
13186;DHT22;6658;53.080;7.428;2024-01-15T08:40:45;2.10;99.90
13186;DHT22;6658;53.080;7.428;2024-01-15T08:43:10;2.10;99.90
13186;DHT22;6658;53.080;7.428;2024-01-15T08:45:36;2.10;99.90
13186;DHT22;6658;53.080;7.428;2024-01-15T08:48:02;2.20;99.90
13186;DHT22;6658;53.080;7.428;2024-01-15T08:50:29;2.20;99.90
13186;DHT22;6658;53.080;7.428;2024-01-15T08:52:55;2.10;99.90
13186;DHT22;6658;53.080;7.428;2024-01-15T08:55:21;2.10;99.90
13186;DHT22;6658;53.080;7.428;2024-01-15T08:57:48;2.10;99.90
13186;DHT22;6658;53.080;7.428;2024-01-15T09:00:14;2.10;99.90
13186;DHT22;6658;53.080;7.428;2024-01-15T09:02:40;2.20;99.90
13186;DHT22;6658;53.080;7.428;2024-01-15T09:05:06;2.20;99.90
13186;DHT22;6658;53.080;7.428;2024-01-15T09:07:32;2.30;99.90
13186;DHT22;6658;53.080;7.428;2024-01-15T09:09:58;2.30;99.90
13186;DHT22;6658;53.080;7.428;2024-01-15T09:12:25;2.30;99.90
13186;DHT22;6658;53.080;7.428;2024-01-15T09:14:51;2.40;99.90
13186;DHT22;6658;53.080;7.428;2024-01-15T09:17:22;2.40;99.90
13186;DHT22;6658;53.080;7.428;2024-01-15T09:19:50;2.40;99.90
13186;DHT22;6658;53.080;7.428;2024-01-15T09:22:16;2.50;99.90
13186;DHT22;6658;53.080;7.428;2024-01-15T09:24:45;2.50;99.90
13186;DHT22;6658;53.080;7.428;2024-01-15T09:27:11;2.60;99.90
13186;DHT22;6658;53.080;7.428;2024-01-15T09:29:36;2.60;99.90
13186;DHT22;6658;53.080;7.428;2024-01-15T09:32:05;2.60;99.90
13186;DHT22;6658;53.080;7.428;2024-01-15T09:34:33;2.60;99.90
13186;DHT22;6658;53.080;7.428;2024-01-15T09:36:58;2.70;99.90
13186;DHT22;6658;53.080;7.428;2024-01-15T09:39:26;2.60;99.90
13186;DHT22;6658;53.080;7.428;2024-01-15T09:41:52;2.70;99.90
13186;DHT22;6658;53.080;7.428;2024-01-15T09:44:19;2.70;99.90
13186;DHT22;6658;53.080;7.428;2024-01-15T09:46:46;2.70;99.90
13186;DHT22;6658;53.080;7.428;2024-01-15T09:49:12;2.80;99.90
13186;DHT22;6658;53.080;7.428;2024-01-15T09:51:38;2.80;99.90
13186;DHT22;6658;53.080;7.428;2024-01-15T09:54:04;2.90;99.90
13186;DHT22;6658;53.080;7.428;2024-01-15T09:56:30;2.90;99.90
13186;DHT22;6658;53.080;7.428;2024-01-15T09:58:57;2.90;99.90
13186;DHT22;6658;53.080;7.428;2024-01-15T10:01:23;2.90;99.90
13186;DHT22;6658;53.080;7.428;2024-01-15T10:03:50;3.00;99.90
13186;DHT22;6658;53.080;7.428;2024-01-15T10:06:17;3.00;99.90
13186;DHT22;6658;53.080;7.428;2024-01-15T10:08:48;3.10;99.90
13186;DHT22;6658;53.080;7.428;2024-01-15T10:11:14;3.10;99.90
13186;DHT22;6658;53.080;7.428;2024-01-15T10:13:40;3.10;99.90
13186;DHT22;6658;53.080;7.428;2024-01-15T10:16:06;2.90;99.90
13186;DHT22;6658;53.080;7.428;2024-01-15T10:18:32;2.70;99.90
13186;DHT22;6658;53.080;7.428;2024-01-15T10:20:58;2.50;99.90
13186;DHT22;6658;53.080;7.428;2024-01-15T10:23:24;2.40;99.90
13186;DHT22;6658;53.080;7.428;2024-01-15T10:25:50;2.40;99.90
13186;DHT22;6658;53.080;7.428;2024-01-15T10:28:19;2.50;99.90
13186;DHT22;6658;53.080;7.428;2024-01-15T10:30:45;2.50;99.90
13186;DHT22;6658;53.080;7.428;2024-01-15T10:33:11;2.60;99.90
13186;DHT22;6658;53.080;7.428;2024-01-15T10:35:38;2.70;99.90
13186;DHT22;6658;53.080;7.428;2024-01-15T10:38:05;2.80;99.90
13186;DHT22;6658;53.080;7.428;2024-01-15T10:40:31;2.90;99.90
13186;DHT22;6658;53.080;7.428;2024-01-15T10:42:57;3.00;99.90
13186;DHT22;6658;53.080;7.428;2024-01-15T10:45:23;3.10;99.90
13186;DHT22;6658;53.080;7.428;2024-01-15T10:47:50;3.00;99.90
13186;DHT22;6658;53.080;7.428;2024-01-15T10:50:16;3.00;99.90
13186;DHT22;6658;53.080;7.428;2024-01-15T10:52:42;2.80;99.90
13186;DHT22;6658;53.080;7.428;2024-01-15T10:55:09;2.70;99.90
13186;DHT22;6658;53.080;7.428;2024-01-15T10:57:38;2.50;99.90
13186;DHT22;6658;53.080;7.428;2024-01-15T11:00:05;2.40;99.90
13186;DHT22;6658;53.080;7.428;2024-01-15T11:02:36;2.40;99.90
13186;DHT22;6658;53.080;7.428;2024-01-15T11:05:02;2.40;99.90
13186;DHT22;6658;53.080;7.428;2024-01-15T11:07:30;2.60;99.90
13186;DHT22;6658;53.080;7.428;2024-01-15T11:09:56;2.80;99.90
13186;DHT22;6658;53.080;7.428;2024-01-15T11:12:24;3.00;99.90
13186;DHT22;6658;53.080;7.428;2024-01-15T11:14:50;3.20;99.90
13186;DHT22;6658;53.080;7.428;2024-01-15T11:17:17;3.20;99.90
13186;DHT22;6658;53.080;7.428;2024-01-15T11:19:49;3.30;99.90
13186;DHT22;6658;53.080;7.428;2024-01-15T11:24:57;3.40;99.90
13186;DHT22;6658;53.080;7.428;2024-01-15T11:27:43;3.30;99.90
13186;DHT22;6658;53.080;7.428;2024-01-15T11:30:12;3.10;99.90
13186;DHT22;6658;53.080;7.428;2024-01-15T11:32:39;2.90;99.90
13186;DHT22;6658;53.080;7.428;2024-01-15T11:35:08;2.70;99.90
13186;DHT22;6658;53.080;7.428;2024-01-15T11:40:37;2.50;99.90
13186;DHT22;6658;53.080;7.428;2024-01-15T11:43:04;2.40;99.90
13186;DHT22;6658;53.080;7.428;2024-01-15T11:45:31;2.40;99.90
13186;DHT22;6658;53.080;7.428;2024-01-15T11:50:33;2.40;99.90
13186;DHT22;6658;53.080;7.428;2024-01-15T11:53:01;2.50;99.90
13186;DHT22;6658;53.080;7.428;2024-01-15T11:55:30;2.50;99.90
13186;DHT22;6658;53.080;7.428;2024-01-15T11:58:01;2.50;99.90
13186;DHT22;6658;53.080;7.428;2024-01-15T12:00:27;2.50;99.90
13186;DHT22;6658;53.080;7.428;2024-01-15T12:02:53;2.50;99.90
13186;DHT22;6658;53.080;7.428;2024-01-15T12:05:20;2.50;99.90
13186;DHT22;6658;53.080;7.428;2024-01-15T12:07:47;2.50;99.90
13186;DHT22;6658;53.080;7.428;2024-01-15T12:10:15;2.60;99.90
13186;DHT22;6658;53.080;7.428;2024-01-15T12:15:22;2.90;99.90
13186;DHT22;6658;53.080;7.428;2024-01-15T12:17:49;2.90;99.90
13186;DHT22;6658;53.080;7.428;2024-01-15T12:20:15;2.80;99.90
13186;DHT22;6658;53.080;7.428;2024-01-15T12:22:41;2.80;99.90
13186;DHT22;6658;53.080;7.428;2024-01-15T12:25:07;2.70;99.90
13186;DHT22;6658;53.080;7.428;2024-01-15T12:27:33;2.60;99.90
13186;DHT22;6658;53.080;7.428;2024-01-15T12:29:59;2.60;99.90
13186;DHT22;6658;53.080;7.428;2024-01-15T12:32:25;2.60;99.90
13186;DHT22;6658;53.080;7.428;2024-01-15T12:34:51;2.70;99.90
13186;DHT22;6658;53.080;7.428;2024-01-15T12:37:20;2.80;99.90
13186;DHT22;6658;53.080;7.428;2024-01-15T12:39:46;3.00;99.90
13186;DHT22;6658;53.080;7.428;2024-01-15T12:42:14;3.30;99.90
13186;DHT22;6658;53.080;7.428;2024-01-15T12:44:40;3.50;99.90
13186;DHT22;6658;53.080;7.428;2024-01-15T12:47:06;3.50;99.90
13186;DHT22;6658;53.080;7.428;2024-01-15T12:49:32;3.10;99.90
13186;DHT22;6658;53.080;7.428;2024-01-15T12:51:59;2.90;99.90
13186;DHT22;6658;53.080;7.428;2024-01-15T12:54:26;2.80;99.90
13186;DHT22;6658;53.080;7.428;2024-01-15T12:56:52;2.70;99.90
13186;DHT22;6658;53.080;7.428;2024-01-15T12:59:18;2.70;99.90
13186;DHT22;6658;53.080;7.428;2024-01-15T13:01:44;2.70;99.90
13186;DHT22;6658;53.080;7.428;2024-01-15T13:04:10;2.70;99.90
13186;DHT22;6658;53.080;7.428;2024-01-15T13:06:36;2.80;99.90
13186;DHT22;6658;53.080;7.428;2024-01-15T13:09:05;2.80;99.90
13186;DHT22;6658;53.080;7.428;2024-01-15T13:11:32;2.80;99.90
13186;DHT22;6658;53.080;7.428;2024-01-15T13:13:58;2.90;99.90
13186;DHT22;6658;53.080;7.428;2024-01-15T13:16:24;2.90;99.90
13186;DHT22;6658;53.080;7.428;2024-01-15T13:18:52;2.90;99.90
13186;DHT22;6658;53.080;7.428;2024-01-15T13:21:18;3.00;99.90
13186;DHT22;6658;53.080;7.428;2024-01-15T13:23:44;3.00;99.90
13186;DHT22;6658;53.080;7.428;2024-01-15T13:26:09;3.10;99.90
13186;DHT22;6658;53.080;7.428;2024-01-15T13:28:35;3.10;99.90
13186;DHT22;6658;53.080;7.428;2024-01-15T13:31:01;3.20;99.90
13186;DHT22;6658;53.080;7.428;2024-01-15T13:33:27;3.20;99.90
13186;DHT22;6658;53.080;7.428;2024-01-15T13:35:53;3.20;99.90
13186;DHT22;6658;53.080;7.428;2024-01-15T13:38:19;3.30;99.90
13186;DHT22;6658;53.080;7.428;2024-01-15T13:40:44;3.30;99.90
13186;DHT22;6658;53.080;7.428;2024-01-15T13:43:11;3.40;99.90
13186;DHT22;6658;53.080;7.428;2024-01-15T13:45:37;3.60;99.90
13186;DHT22;6658;53.080;7.428;2024-01-15T13:48:03;3.70;99.90
13186;DHT22;6658;53.080;7.428;2024-01-15T13:50:31;3.70;99.90
13186;DHT22;6658;53.080;7.428;2024-01-15T13:52:57;3.80;99.90
13186;DHT22;6658;53.080;7.428;2024-01-15T13:55:23;3.90;99.90
13186;DHT22;6658;53.080;7.428;2024-01-15T13:57:48;4.10;99.90
13186;DHT22;6658;53.080;7.428;2024-01-15T14:00:14;4.00;99.90
13186;DHT22;6658;53.080;7.428;2024-01-15T14:02:44;3.90;99.90
13186;DHT22;6658;53.080;7.428;2024-01-15T14:05:13;3.90;99.90
13186;DHT22;6658;53.080;7.428;2024-01-15T14:07:38;3.90;99.90
13186;DHT22;6658;53.080;7.428;2024-01-15T14:10:05;3.80;99.90
13186;DHT22;6658;53.080;7.428;2024-01-15T14:12:33;3.80;99.90
13186;DHT22;6658;53.080;7.428;2024-01-15T14:15:00;3.70;99.90
13186;DHT22;6658;53.080;7.428;2024-01-15T14:17:26;3.70;99.90
13186;DHT22;6658;53.080;7.428;2024-01-15T14:19:51;3.60;99.90
13186;DHT22;6658;53.080;7.428;2024-01-15T14:22:17;3.60;99.90
13186;DHT22;6658;53.080;7.428;2024-01-15T14:24:43;3.60;99.90
13186;DHT22;6658;53.080;7.428;2024-01-15T14:27:08;3.50;99.90
13186;DHT22;6658;53.080;7.428;2024-01-15T14:29:35;3.50;99.90
13186;DHT22;6658;53.080;7.428;2024-01-15T14:32:01;3.50;99.90
13186;DHT22;6658;53.080;7.428;2024-01-15T14:34:27;3.60;99.90
13186;DHT22;6658;53.080;7.428;2024-01-15T14:36:53;3.60;99.90
13186;DHT22;6658;53.080;7.428;2024-01-15T14:39:22;3.60;99.90
13186;DHT22;6658;53.080;7.428;2024-01-15T14:41:48;3.50;99.90
13186;DHT22;6658;53.080;7.428;2024-01-15T14:44:14;3.40;99.90
13186;DHT22;6658;53.080;7.428;2024-01-15T14:46:40;3.20;99.90
13186;DHT22;6658;53.080;7.428;2024-01-15T14:49:06;3.10;99.90
13186;DHT22;6658;53.080;7.428;2024-01-15T14:51:32;3.10;99.90
13186;DHT22;6658;53.080;7.428;2024-01-15T14:53:57;3.00;99.90
13186;DHT22;6658;53.080;7.428;2024-01-15T14:56:23;2.90;99.90
13186;DHT22;6658;53.080;7.428;2024-01-15T14:58:49;2.90;99.90
13186;DHT22;6658;53.080;7.428;2024-01-15T15:01:15;2.90;99.90
13186;DHT22;6658;53.080;7.428;2024-01-15T15:03:40;2.80;99.90
13186;DHT22;6658;53.080;7.428;2024-01-15T15:06:06;2.80;99.90
13186;DHT22;6658;53.080;7.428;2024-01-15T15:08:36;2.70;99.90
13186;DHT22;6658;53.080;7.428;2024-01-15T15:11:03;2.60;99.90
13186;DHT22;6658;53.080;7.428;2024-01-15T15:13:29;2.50;99.90
13186;DHT22;6658;53.080;7.428;2024-01-15T15:15:54;2.40;99.90
13186;DHT22;6658;53.080;7.428;2024-01-15T15:18:21;2.40;99.90
13186;DHT22;6658;53.080;7.428;2024-01-15T15:20:47;2.40;99.90
13186;DHT22;6658;53.080;7.428;2024-01-15T15:23:13;2.30;99.90
13186;DHT22;6658;53.080;7.428;2024-01-15T15:25:39;2.30;99.90
13186;DHT22;6658;53.080;7.428;2024-01-15T15:28:04;2.20;99.90
13186;DHT22;6658;53.080;7.428;2024-01-15T15:30:31;2.20;99.90
13186;DHT22;6658;53.080;7.428;2024-01-15T15:32:57;2.10;99.90
13186;DHT22;6658;53.080;7.428;2024-01-15T15:35:22;2.10;99.90
13186;DHT22;6658;53.080;7.428;2024-01-15T15:37:48;2.00;99.90
13186;DHT22;6658;53.080;7.428;2024-01-15T15:40:14;2.00;99.90
13186;DHT22;6658;53.080;7.428;2024-01-15T15:42:39;2.00;99.90
13186;DHT22;6658;53.080;7.428;2024-01-15T15:45:05;2.10;99.90
13186;DHT22;6658;53.080;7.428;2024-01-15T15:47:32;2.10;99.90
13186;DHT22;6658;53.080;7.428;2024-01-15T15:49:58;2.10;99.90
13186;DHT22;6658;53.080;7.428;2024-01-15T15:52:23;2.20;99.90
13186;DHT22;6658;53.080;7.428;2024-01-15T15:54:49;2.20;99.90
13186;DHT22;6658;53.080;7.428;2024-01-15T15:57:15;2.30;99.90
13186;DHT22;6658;53.080;7.428;2024-01-15T15:59:41;2.30;99.90
13186;DHT22;6658;53.080;7.428;2024-01-15T16:02:06;2.20;99.90
13186;DHT22;6658;53.080;7.428;2024-01-15T16:04:32;2.10;99.90
13186;DHT22;6658;53.080;7.428;2024-01-15T16:06:58;2.10;99.90